Pagina principale
METAR-TAF:

METAR-TAF

Aeroporti :

Pescara, Italia

Aeroporto di Pescara

latitudine: 42-26N, longitudine: 014-12E, altezza: 10 m

Osservazione

Il bollettino è stato emesso 1 ora e 12 minuti fa, alle 23:50 UTC
Vento 12 kt da sud-ovest
Temperature 16°C
Umidità 48%
Pressione 1005 hPa
Visibilità 10 km o più

METAR: LIBP 162350Z AUTO 23012KT 9999 NCD 16/05 Q1005

Ora: 02:02 (01:02 UTC)

Previsione

Il bollettino è stato emesso 2 ore e 2 minuti fa, alle 23:00 UTC
Previsione valida dal 17 alle 00 UTC al 17 alle 24 UTC
Vento 18 kt da sud-ovest con raffiche fino a 28 kt
Visibilità 10 km o più
Poco nuvoloso ad un'altezza di 3000 ft
Evoluzione graduale
dal 17 alle 09 UTC al 17 alle 12 UTC
Vento 18 kt da ovest/nord-ovest

TAF: LIBP 162300Z 1700/1724 23018G28KT 9999 FEW030 BECMG 1709/1712 30018KT

Osservazioni e previsioni meteorologiche di più di 4000 aeroporti (messaggi METAR e TAF).

Le stazioni disponibili sono rappresentate dai dischi gialli e rossi sulla carta.

Puntare il mouse per vedere il nome della stazione.

Clicca sopra per visualizzare le osservazioni e previsioni meteorologiche.

Per cambiare la mappa : fare clic sui pulsanti verdi con una croce nera per ingrandire, il pulsante verde con un trattino per diminuire, o sulla freccia verde per le mappe adiacenti.


METAR-TAF: